KTUS/TUS METAR and TAF weather

Enter ICAO airport designator
Station Type Date Time Source
KTUS METAR 2019/12/07 14:53 UTC NOAA

KTUS 071453Z AUTO 15008KT 10SM CLR 11/05 A3021 RMK AO2 SLP209 T01060050 51005


Station Type Date Time Source
KTUS Decoded METAR 2019/12/07 14:53 UTC NOAA

TUCSON INTERNATIONAL AIRPORT , AZ, United States (KTUS) 32-08N 110-57W 786M
Dec 07, 2019 - 09:53 AM EST / 2019.12.07 1453 UTC
Wind: from the SSE (150 degrees) at 9 MPH (8 KT):0
Visibility: 10 mile(s):0
Sky conditions: clear
Temperature: 51.1 F (10.6 C)
Dew Point: 41.0 F (5.0 C)
Relative Humidity: 68%
Pressure (altimeter): 30.21 in. Hg (1023 hPa)
Pressure tendency: 0.01 inches (0.5 hPa) higher than three hours ago
ob: KTUS 071453Z AUTO 15008KT 10SM CLR 11/05 A3021 RMK AO2 SLP209 T01060050 51005
cycle: 15

Station Type Date Time Source
KTUS TAF 2019/12/07 12:27 UTC NOAA

TAF KTUS 071123Z 0712/0812 14007KT P6SM BKN250
FM071800 34006KT P6SM FEW140 BKN200
FM080200 25004KT P6SM SCT100 OVC150
FM080700 15006KT P6SM BKN080 OVC120

Example: see airport list